Time;durP1;ratioP1;P1;durP2;ratioP2;P2;SDS_P1;SDS_P2;PMS_P1;PMS_P2;Temp;Humidity;BMP_temperature;BMP_pressure;BME280_temperature;BME280_humidity;BME280_pressure;Samples;Min_cycle;Max_cycle;Signal;HPM_P1;HPM_P2
2021/06/30 00:01:33;;;;;;;8.00;3.60;;;15.70;99.90;;;;;;4951936;28;20201;-91
2021/06/30 00:03:59;;;;;;;3.57;3.27;;;15.70;99.90;;;;;;4932211;28;20443;-90
2021/06/30 00:06:25;;;;;;;3.27;2.97;;;15.70;99.90;;;;;;4936256;28;20223;-90
2021/06/30 00:08:53;;;;;;;3.47;3.27;;;15.60;99.90;;;;;;4932705;28;20195;-90
2021/06/30 00:11:20;;;;;;;3.87;3.50;;;15.50;99.90;;;;;;4935331;28;20624;-90
2021/06/30 00:13:46;;;;;;;3.50;3.27;;;15.50;99.90;;;;;;4938138;28;20504;-91
2021/06/30 00:16:12;;;;;;;7.23;3.60;;;15.50;99.90;;;;;;4954053;28;20477;-91
2021/06/30 00:18:38;;;;;;;4.00;3.67;;;15.50;99.90;;;;;;4952357;28;20564;-92
2021/06/30 00:21:04;;;;;;;3.50;3.30;;;15.40;99.90;;;;;;4926394;28;20550;-91
2021/06/30 00:23:30;;;;;;;3.60;3.30;;;15.40;99.90;;;;;;4947191;28;21181;-92
2021/06/30 00:25:56;;;;;;;5.50;3.83;;;15.40;99.90;;;;;;4949359;28;20598;-92
2021/06/30 00:28:21;;;;;;;4.30;3.90;;;15.30;99.90;;;;;;4933255;28;20678;-91
2021/06/30 00:30:47;;;;;;;3.73;3.17;;;15.40;99.90;;;;;;4936295;28;20199;-91
2021/06/30 00:33:13;;;;;;;3.97;3.67;;;15.40;99.90;;;;;;4951221;28;20210;-90
2021/06/30 00:35:38;;;;;;;4.40;3.00;;;15.50;99.90;;;;;;4935681;28;20397;-89
2021/06/30 00:38:04;;;;;;;3.80;3.47;;;15.50;99.90;;;;;;4951718;28;20767;-90
2021/06/30 00:40:30;;;;;;;3.93;3.63;;;15.50;99.90;;;;;;4935737;28;20230;-91
2021/06/30 00:42:56;;;;;;;3.60;3.40;;;15.60;99.90;;;;;;4936200;28;20225;-90
2021/06/30 00:45:22;;;;;;;3.87;3.50;;;15.60;99.90;;;;;;4950644;28;20470;-91
2021/06/30 00:47:48;;;;;;;3.37;3.17;;;15.60;99.90;;;;;;4931103;28;20210;-92
2021/06/30 00:50:18;;;;;;;3.70;3.20;;;15.50;99.90;;;;;;4952931;28;20244;-90
2021/06/30 00:52:44;;;;;;;4.60;3.67;;;15.60;99.90;;;;;;4934799;28;20615;-90
2021/06/30 00:55:11;;;;;;;3.90;3.50;;;15.60;99.90;;;;;;4949246;28;20445;-90
2021/06/30 00:57:37;;;;;;;3.63;3.33;;;15.60;99.90;;;;;;4937278;28;20819;-91
2021/06/30 01:00:07;;;;;;;4.03;3.73;;;15.60;99.90;;;;;;4933797;28;20461;-91
2021/06/30 01:02:33;;;;;;;3.70;3.40;;;15.60;99.90;;;;;;4932968;28;20823;-91
2021/06/30 01:04:59;;;;;;;3.20;3.00;;;15.60;99.90;;;;;;4936639;28;20481;-91
2021/06/30 01:07:35;;;;;;;3.10;2.90;;;15.60;99.90;;;;;;4935636;28;21196;-93
2021/06/30 01:10:02;;;;;;;2.43;2.07;;;15.60;99.90;;;;;;4934690;28;20194;-92
2021/06/30 01:12:28;;;;;;;3.10;2.27;;;15.60;99.90;;;;;;4950149;28;20976;-90
2021/06/30 01:14:53;;;;;;;2.57;2.13;;;15.60;99.90;;;;;;4948728;28;20446;-91
2021/06/30 01:17:19;;;;;;;3.07;2.43;;;15.50;99.90;;;;;;4952061;28;20195;-91
2021/06/30 01:19:45;;;;;;;3.57;2.77;;;15.50;99.90;;;;;;4935167;28;20191;-91
2021/06/30 01:22:10;;;;;;;3.53;2.20;;;15.60;99.90;;;;;;4935838;28;20214;-90
2021/06/30 01:24:36;;;;;;;2.23;2.03;;;15.50;99.90;;;;;;4933600;28;20195;-90
2021/06/30 01:27:04;;;;;;;4.00;1.70;;;15.60;99.90;;;;;;4948994;28;20215;-90
2021/06/30 01:29:29;;;;;;;1.80;1.57;;;15.50;99.90;;;;;;4939959;28;20458;-91
2021/06/30 01:31:55;;;;;;;1.83;1.43;;;15.50;99.90;;;;;;4939234;28;20453;-88
2021/06/30 01:34:21;;;;;;;1.93;1.20;;;15.50;99.90;;;;;;4938774;28;20542;-90
2021/06/30 01:36:52;;;;;;;1.60;1.50;;;15.50;99.90;;;;;;4945765;28;20808;-90
2021/06/30 01:39:21;;;;;;;1.70;1.60;;;15.40;99.90;;;;;;4934390;28;20192;-90
2021/06/30 01:41:48;;;;;;;1.60;1.50;;;15.40;99.90;;;;;;4952546;28;20458;-89
2021/06/30 01:44:14;;;;;;;1.77;1.67;;;15.30;99.90;;;;;;4952216;28;20433;-90
2021/06/30 01:46:41;;;;;;;1.50;1.27;;;15.30;99.90;;;;;;4950539;28;20540;-89
2021/06/30 01:49:07;;;;;;;1.70;1.60;;;15.20;99.90;;;;;;4939648;28;20883;-90
2021/06/30 01:51:33;;;;;;;1.50;1.40;;;15.10;99.90;;;;;;4937479;28;20455;-91
2021/06/30 01:54:01;;;;;;;1.57;1.47;;;15.00;99.90;;;;;;4937954;28;20337;-90
2021/06/30 01:56:29;;;;;;;1.40;1.30;;;14.90;99.90;;;;;;4939747;28;20550;-91
2021/06/30 01:59:22;;;;;;;2.10;1.70;;;14.80;99.90;;;;;;4936817;28;20445;-90
2021/06/30 02:01:48;;;;;;;2.00;1.50;;;14.80;99.90;;;;;;4937608;28;20867;-91
2021/06/30 02:04:14;;;;;;;3.30;1.60;;;14.80;99.90;;;;;;4955132;28;20496;-91
2021/06/30 02:06:42;;;;;;;4.70;1.50;;;14.80;99.90;;;;;;4935754;28;20795;-92
2021/06/30 02:09:10;;;;;;;1.83;1.73;;;14.80;99.90;;;;;;4940541;28;20610;-95
2021/06/30 02:11:36;;;;;;;1.90;1.80;;;14.80;99.90;;;;;;4943677;28;20468;-92
2021/06/30 02:14:03;;;;;;;1.70;1.60;;;14.70;99.90;;;;;;4954877;28;20455;-94
2021/06/30 02:16:29;;;;;;;3.37;1.70;;;14.70;99.90;;;;;;4943053;28;20454;-92
2021/06/30 02:19:01;;;;;;;2.00;1.40;;;14.70;99.90;;;;;;4938283;28;20488;-92
2021/06/30 02:21:28;;;;;;;2.27;1.50;;;14.60;99.90;;;;;;4952882;28;20190;-91
2021/06/30 02:24:03;;;;;;;1.70;1.60;;;14.50;99.90;;;;;;4938112;28;20442;-93
2021/06/30 02:26:29;;;;;;;7.03;1.60;;;14.50;99.90;;;;;;4953509;28;20485;-91
2021/06/30 02:29:05;;;;;;;1.63;1.40;;;14.50;99.90;;;;;;4937176;28;20447;-91
2021/06/30 02:31:33;;;;;;;1.33;1.23;;;14.40;99.90;;;;;;4953873;28;22571;-92
2021/06/30 02:33:59;;;;;;;1.37;1.30;;;14.40;99.90;;;;;;4938856;28;20478;-94
2021/06/30 02:36:29;;;;;;;1.70;1.30;;;14.40;99.90;;;;;;4940539;28;20455;-93
2021/06/30 02:39:14;;;;;;;1.50;1.40;;;14.40;99.90;;;;;;4936711;28;20478;-94
2021/06/30 02:41:41;;;;;;;1.80;1.20;;;14.40;99.90;;;;;;4952372;28;20497;-92
2021/06/30 02:44:35;;;;;;;1.10;1.10;;;14.40;99.90;;;;;;4942270;28;20533;-92
2021/06/30 02:47:01;;;;;;;1.60;1.50;;;14.40;99.90;;;;;;4952989;28;20495;-92
2021/06/30 02:49:26;;;;;;;1.50;1.40;;;14.30;99.90;;;;;;4942222;28;20844;-91
2021/06/30 02:51:52;;;;;;;1.60;1.50;;;14.30;99.90;;;;;;4938328;28;20290;-94
2021/06/30 02:54:17;;;;;;;4.13;1.37;;;14.30;99.90;;;;;;4938765;28;20545;-92
2021/06/30 02:56:58;;;;;;;1.33;1.23;;;14.30;99.90;;;;;;4941286;28;20600;-92
2021/06/30 02:59:39;;;;;;;1.00;1.00;;;14.20;99.90;;;;;;4953211;28;20199;-92
2021/06/30 03:02:05;;;;;;;1.30;1.20;;;14.20;99.90;;;;;;4938434;28;20536;-94
2021/06/30 03:04:30;;;;;;;3.03;1.30;;;14.20;99.90;;;;;;4935636;28;20211;-92
2021/06/30 03:06:56;;;;;;;1.37;1.30;;;14.20;99.90;;;;;;4953107;28;20308;-91
2021/06/30 03:09:28;;;;;;;1.50;1.30;;;14.30;99.90;;;;;;4952385;28;20190;-90
2021/06/30 03:11:54;;;;;;;1.10;1.10;;;14.30;99.90;;;;;;4952086;28;20959;-91
2021/06/30 03:14:20;;;;;;;1.30;1.20;;;14.30;99.90;;;;;;4935192;28;20458;-90
2021/06/30 03:16:47;;;;;;;1.40;1.30;;;14.30;99.90;;;;;;4935422;28;20195;-90
2021/06/30 03:19:13;;;;;;;1.40;1.30;;;14.30;99.90;;;;;;4952764;28;21094;-92
2021/06/30 03:21:39;;;;;;;0.97;0.97;;;14.30;99.90;;;;;;4939599;28;20474;-91
2021/06/30 03:24:05;;;;;;;1.53;1.20;;;14.30;99.90;;;;;;4928752;28;20988;-91
2021/06/30 03:26:31;;;;;;;3.27;1.10;;;14.30;99.90;;;;;;4937286;28;20230;-91
2021/06/30 03:29:02;;;;;;;1.10;1.10;;;14.20;99.90;;;;;;4947086;28;20492;-89
2021/06/30 03:31:31;;;;;;;1.50;1.40;;;14.20;99.90;;;;;;4932919;28;20482;-92
2021/06/30 03:34:00;;;;;;;18.07;1.73;;;14.20;99.90;;;;;;4947968;28;20486;-91
2021/06/30 03:36:33;;;;;;;1.23;1.00;;;14.20;99.90;;;;;;4946252;28;20458;-91
2021/06/30 03:38:58;;;;;;;1.53;1.20;;;14.20;99.90;;;;;;4952284;28;20450;-90
2021/06/30 03:41:24;;;;;;;2.80;1.20;;;14.20;99.90;;;;;;4932839;28;20206;-89
2021/06/30 03:43:50;;;;;;;0.90;0.90;;;14.20;99.90;;;;;;4935547;28;20183;-91
2021/06/30 03:46:16;;;;;;;2.00;1.17;;;14.20;99.90;;;;;;4931731;28;20226;-87
2021/06/30 03:48:41;;;;;;;1.43;0.93;;;14.10;99.90;;;;;;4950951;28;20447;-88
2021/06/30 03:51:07;;;;;;;0.77;0.77;;;14.10;99.90;;;;;;4948897;28;20548;-92
2021/06/30 03:53:33;;;;;;;1.00;1.00;;;14.00;99.90;;;;;;4945765;28;20179;-92
2021/06/30 03:55:59;;;;;;;1.10;1.10;;;14.10;99.90;;;;;;4952449;28;20191;-92
2021/06/30 03:58:25;;;;;;;1.20;1.10;;;14.00;99.90;;;;;;4953296;28;21163;-93
2021/06/30 04:00:51;;;;;;;1.90;0.87;;;13.90;99.90;;;;;;4935269;28;20780;-90
2021/06/30 04:03:18;;;;;;;2.87;1.47;;;14.00;99.90;;;;;;4936164;28;20224;-90
2021/06/30 04:05:45;;;;;;;0.73;0.73;;;13.90;99.90;;;;;;4937134;28;20215;-90
2021/06/30 04:08:11;;;;;;;1.00;0.90;;;14.00;99.90;;;;;;4937880;28;20446;-90
2021/06/30 04:10:37;;;;;;;0.80;0.80;;;14.00;99.90;;;;;;4938522;28;20464;-90
2021/06/30 04:13:20;;;;;;;3.60;0.80;;;14.00;99.90;;;;;;4937538;28;20460;-90
2021/06/30 04:15:46;;;;;;;0.80;0.70;;;14.00;99.90;;;;;;4929386;28;21625;-91
2021/06/30 04:18:11;;;;;;;0.80;0.67;;;14.00;99.90;;;;;;4937627;28;20226;-89
2021/06/30 04:20:42;;;;;;;0.70;0.70;;;14.00;99.90;;;;;;4939601;28;20222;-92
2021/06/30 04:23:08;;;;;;;0.80;0.80;;;14.00;99.90;;;;;;4954008;28;20927;-92
2021/06/30 04:25:34;;;;;;;1.40;0.60;;;14.00;99.90;;;;;;4935447;28;20466;-89
2021/06/30 04:28:00;;;;;;;1.17;0.50;;;14.00;99.90;;;;;;4938308;28;20948;-92
2021/06/30 04:30:26;;;;;;;0.50;0.50;;;14.00;99.90;;;;;;4940073;28;20529;-91
2021/06/30 04:32:51;;;;;;;0.70;0.70;;;14.10;99.90;;;;;;4953226;28;20440;-91
2021/06/30 04:35:17;;;;;;;0.70;0.50;;;14.10;99.90;;;;;;4936607;28;20230;-90
2021/06/30 04:37:42;;;;;;;0.80;0.70;;;14.10;99.90;;;;;;4950608;28;20206;-91
2021/06/30 04:40:09;;;;;;;1.00;0.90;;;14.10;99.90;;;;;;4936636;28;20199;-92
2021/06/30 04:42:34;;;;;;;1.03;0.60;;;14.10;99.90;;;;;;4951391;28;20203;-91
2021/06/30 04:45:00;;;;;;;1.20;0.70;;;14.10;99.90;;;;;;4954048;28;20979;-91
2021/06/30 04:47:26;;;;;;;0.70;0.70;;;14.10;99.90;;;;;;4941103;28;20225;-91
2021/06/30 04:49:51;;;;;;;1.63;0.70;;;14.20;99.90;;;;;;4936397;28;20429;-91
2021/06/30 04:52:17;;;;;;;2.67;0.70;;;14.20;99.90;;;;;;4939629;28;20210;-91
2021/06/30 04:54:43;;;;;;;0.70;0.50;;;14.20;99.90;;;;;;4956326;28;20209;-91
2021/06/30 04:57:08;;;;;;;0.83;0.60;;;14.30;99.90;;;;;;4957377;28;20187;-91
2021/06/30 04:59:34;;;;;;;0.60;0.60;;;14.20;99.90;;;;;;4954700;28;20191;-90
2021/06/30 05:02:00;;;;;;;0.80;0.80;;;14.30;99.90;;;;;;4942340;28;20283;-92
2021/06/30 05:04:25;;;;;;;0.70;0.70;;;14.30;99.90;;;;;;4957329;28;20210;-91
2021/06/30 05:06:51;;;;;;;0.60;0.60;;;14.30;99.90;;;;;;4956341;28;20222;-89
2021/06/30 05:09:16;;;;;;;1.33;1.23;;;14.30;99.90;;;;;;4932502;28;20187;-91
2021/06/30 05:11:42;;;;;;;0.40;0.40;;;14.30;99.90;;;;;;4939040;28;20199;-91
2021/06/30 05:14:08;;;;;;;1.03;0.40;;;14.40;99.90;;;;;;4939674;28;20278;-91
2021/06/30 05:16:34;;;;;;;0.70;0.50;;;14.50;99.90;;;;;;4958647;28;21515;-91
2021/06/30 05:18:59;;;;;;;1.33;0.77;;;14.50;99.90;;;;;;4941857;28;20196;-95
2021/06/30 05:21:25;;;;;;;0.63;0.63;;;14.50;99.90;;;;;;4963040;28;20190;-92
2021/06/30 05:23:51;;;;;;;1.23;0.53;;;14.60;99.90;;;;;;4939790;28;20187;-93
2021/06/30 05:26:17;;;;;;;1.73;0.80;;;14.70;99.90;;;;;;4940538;28;20218;-95
2021/06/30 05:28:43;;;;;;;0.83;0.50;;;14.70;99.90;;;;;;4947179;28;20250;-92
2021/06/30 05:31:09;;;;;;;0.70;0.60;;;14.80;99.90;;;;;;4940389;28;20451;-95
2021/06/30 05:33:35;;;;;;;0.80;0.50;;;14.90;99.90;;;;;;4961339;28;20455;-95
2021/06/30 05:36:00;;;;;;;0.70;0.70;;;14.90;99.90;;;;;;4965776;28;20588;-95
2021/06/30 05:38:26;;;;;;;1.57;0.70;;;15.00;99.90;;;;;;4947533;28;20214;-93
2021/06/30 05:40:52;;;;;;;0.60;0.60;;;15.00;99.90;;;;;;4943154;28;20246;-92
2021/06/30 05:43:18;;;;;;;0.50;0.50;;;15.00;99.90;;;;;;4955163;28;20517;-95
2021/06/30 05:45:46;;;;;;;0.80;0.40;;;15.10;99.90;;;;;;4947842;28;20266;-91
2021/06/30 05:48:12;;;;;;;0.40;0.40;;;15.20;99.90;;;;;;4956355;28;20465;-94
2021/06/30 05:50:53;;;;;;;2.57;0.90;;;15.30;99.90;;;;;;4963732;28;20459;-94
2021/06/30 05:53:19;;;;;;;0.30;0.30;;;15.20;99.90;;;;;;4938447;28;20198;-93
2021/06/30 05:55:46;;;;;;;0.77;0.50;;;15.10;99.90;;;;;;4943182;28;20451;-95
2021/06/30 05:58:12;;;;;;;0.57;0.57;;;15.20;99.90;;;;;;4955005;28;20577;-93
2021/06/30 06:00:37;;;;;;;0.60;0.40;;;15.20;99.90;;;;;;4947093;28;20521;-91
2021/06/30 06:03:10;;;;;;;0.90;0.70;;;15.20;99.90;;;;;;4941736;28;21610;-96
2021/06/30 06:06:18;;;;;;;0.70;0.53;;;15.20;99.90;;;;;;4938823;28;20226;-94
2021/06/30 06:08:44;;;;;;;1.70;0.40;;;15.40;99.90;;;;;;4955950;28;20579;-91
2021/06/30 06:11:13;;;;;;;0.50;0.50;;;15.50;99.90;;;;;;4936786;28;20909;-91
2021/06/30 06:13:40;;;;;;;0.50;0.50;;;15.70;99.90;;;;;;4942406;28;20239;-94
2021/06/30 06:16:09;;;;;;;0.60;0.60;;;15.80;99.90;;;;;;4940461;28;20443;-93
2021/06/30 06:18:35;;;;;;;1.27;0.60;;;15.90;99.90;;;;;;4942148;28;20855;-89
2021/06/30 06:21:02;;;;;;;2.20;0.60;;;16.00;99.90;;;;;;4933539;28;20537;-90
2021/06/30 06:23:27;;;;;;;0.60;0.60;;;15.90;99.90;;;;;;4937878;28;20192;-92
2021/06/30 06:25:53;;;;;;;0.40;0.40;;;16.00;99.90;;;;;;4951165;28;20496;-91
2021/06/30 06:28:19;;;;;;;0.60;0.60;;;16.00;99.90;;;;;;4953879;28;20257;-91
2021/06/30 06:30:48;;;;;;;5.37;0.73;;;15.90;99.90;;;;;;4939598;28;20278;-90
2021/06/30 06:33:18;;;;;;;0.80;0.63;;;15.90;99.90;;;;;;4955382;28;20282;-87
2021/06/30 06:35:47;;;;;;;0.50;0.50;;;16.00;99.90;;;;;;4951545;28;20488;-88
2021/06/30 06:38:14;;;;;;;1.97;0.60;;;16.20;99.90;;;;;;4939847;28;20454;-88
2021/06/30 06:40:40;;;;;;;1.07;0.97;;;16.30;99.90;;;;;;4956930;28;20446;-90
2021/06/30 06:43:10;;;;;;;1.00;0.70;;;16.40;99.90;;;;;;4958428;28;20933;-89
2021/06/30 06:45:39;;;;;;;0.70;0.60;;;16.50;99.90;;;;;;4955938;28;20889;-89
2021/06/30 06:48:05;;;;;;;0.50;0.50;;;16.20;99.90;;;;;;4958516;28;20435;-88
2021/06/30 06:50:31;;;;;;;1.00;0.50;;;16.20;99.90;;;;;;4954508;28;20871;-88
2021/06/30 06:52:56;;;;;;;0.80;0.60;;;16.20;99.90;;;;;;4939076;28;20443;-89
2021/06/30 06:55:23;;;;;;;0.50;0.50;;;16.20;99.90;;;;;;4956401;28;20210;-88
2021/06/30 06:57:49;;;;;;;0.40;0.40;;;16.10;99.90;;;;;;4940418;28;20195;-88
2021/06/30 07:00:16;;;;;;;0.90;0.73;;;16.00;99.90;;;;;;4957010;28;20484;-90
2021/06/30 07:02:41;;;;;;;0.70;0.57;;;16.10;99.90;;;;;;4939257;28;21507;-89
2021/06/30 07:05:10;;;;;;;0.60;0.60;;;16.20;99.90;;;;;;4954469;28;20450;-89
2021/06/30 07:07:40;;;;;;;0.67;0.60;;;16.20;99.90;;;;;;4942425;28;20231;-90
2021/06/30 07:10:06;;;;;;;0.83;0.70;;;16.20;99.90;;;;;;4939533;28;20451;-88
2021/06/30 07:12:32;;;;;;;1.90;0.70;;;16.30;99.90;;;;;;4958402;28;21271;-88
2021/06/30 07:15:00;;;;;;;1.90;0.70;;;16.30;99.90;;;;;;4942656;28;20183;-90
2021/06/30 07:17:26;;;;;;;0.50;0.50;;;16.40;99.90;;;;;;4939440;28;20191;-89
2021/06/30 07:19:51;;;;;;;0.50;0.40;;;16.50;99.90;;;;;;4956753;28;20975;-89
2021/06/30 07:22:17;;;;;;;0.60;0.60;;;16.70;99.90;;;;;;4954242;28;20190;-88
2021/06/30 07:24:43;;;;;;;0.63;0.50;;;16.80;99.90;;;;;;4957465;28;20578;-88
2021/06/30 07:27:11;;;;;;;0.50;0.50;;;16.70;99.90;;;;;;4940220;28;20313;-87
2021/06/30 07:29:37;;;;;;;0.50;0.50;;;16.50;99.90;;;;;;4957876;28;20310;-89
2021/06/30 07:32:03;;;;;;;0.90;0.60;;;16.80;99.90;;;;;;4944937;28;20530;-89
2021/06/30 07:34:28;;;;;;;0.60;0.60;;;17.00;99.90;;;;;;4954883;28;20202;-89
2021/06/30 07:36:58;;;;;;;9.40;0.90;;;17.10;99.90;;;;;;4955791;28;22736;-90
2021/06/30 07:39:24;;;;;;;0.93;0.30;;;17.00;99.90;;;;;;4956144;28;20528;-90
2021/06/30 07:41:51;;;;;;;0.60;0.60;;;17.10;99.90;;;;;;4954663;28;20458;-89
2021/06/30 07:44:23;;;;;;;0.90;0.50;;;17.50;99.90;;;;;;4954949;28;20444;-89
2021/06/30 07:46:49;;;;;;;0.60;0.60;;;17.80;99.90;;;;;;4939105;28;21700;-89
2021/06/30 07:49:15;;;;;;;0.50;0.40;;;17.90;99.90;;;;;;4942515;28;20478;-90
2021/06/30 07:51:46;;;;;;;0.50;0.50;;;17.90;99.90;;;;;;4957824;28;20194;-89
2021/06/30 07:54:12;;;;;;;0.53;0.50;;;18.00;99.90;;;;;;4954519;28;20195;-88
2021/06/30 07:56:41;;;;;;;1.60;0.40;;;18.30;99.90;;;;;;4938351;28;20995;-88
2021/06/30 07:59:08;;;;;;;0.40;0.40;;;18.20;99.90;;;;;;4951542;28;20199;-88
2021/06/30 08:01:36;;;;;;;0.60;0.40;;;17.80;99.90;;;;;;4941548;28;20925;-89
2021/06/30 08:04:02;;;;;;;0.40;0.40;;;17.60;99.90;;;;;;4937775;28;20439;-88
2021/06/30 08:06:28;;;;;;;0.70;0.43;;;17.50;99.90;;;;;;4938820;28;20899;-90
2021/06/30 08:08:54;;;;;;;0.97;0.90;;;17.50;99.90;;;;;;4940670;28;20195;-89
2021/06/30 08:11:23;;;;;;;0.90;0.90;;;17.40;99.90;;;;;;4954812;28;20438;-90
2021/06/30 08:13:53;;;;;;;1.90;0.90;;;17.30;99.90;;;;;;4941218;28;20463;-90
2021/06/30 08:16:20;;;;;;;0.70;0.60;;;17.30;99.90;;;;;;4946028;28;20594;-89
2021/06/30 08:18:46;;;;;;;0.47;0.47;;;17.40;99.90;;;;;;4939713;28;20481;-90
2021/06/30 08:21:12;;;;;;;1.13;0.60;;;17.40;99.90;;;;;;4952041;28;20470;-89
2021/06/30 08:23:38;;;;;;;0.90;0.50;;;17.40;99.90;;;;;;4936714;28;20968;-88
2021/06/30 08:26:08;;;;;;;2.30;0.50;;;17.20;99.90;;;;;;4940532;28;20550;-91
2021/06/30 08:28:38;;;;;;;0.57;0.50;;;17.20;99.90;;;;;;4943019;28;20191;-89
2021/06/30 08:31:04;;;;;;;1.63;0.47;;;17.20;99.90;;;;;;4939334;28;20450;-89
2021/06/30 08:33:30;;;;;;;1.17;0.40;;;17.10;99.90;;;;;;4936004;28;20963;-89
2021/06/30 08:35:56;;;;;;;1.30;0.63;;;17.10;99.90;;;;;;4959162;28;20986;-88
2021/06/30 08:38:25;;;;;;;0.77;0.53;;;17.10;99.90;;;;;;4951750;28;20442;-89
2021/06/30 08:40:55;;;;;;;0.50;0.50;;;17.00;99.90;;;;;;4953441;28;20209;-89
2021/06/30 08:43:20;;;;;;;0.30;0.30;;;16.90;99.90;;;;;;4939573;28;21239;-89
2021/06/30 08:45:46;;;;;;;0.50;0.50;;;16.90;99.90;;;;;;4937502;28;20614;-89
2021/06/30 08:48:16;;;;;;;0.50;0.40;;;16.80;99.90;;;;;;4936769;28;20195;-86
2021/06/30 08:50:46;;;;;;;0.70;0.50;;;16.90;99.90;;;;;;4957091;28;20191;-88
2021/06/30 08:53:14;;;;;;;0.43;0.43;;;17.40;99.90;;;;;;4939410;28;20442;-88
2021/06/30 08:55:47;;;;;;;0.43;0.43;;;17.90;99.90;;;;;;4939634;28;20493;-88
2021/06/30 08:58:13;;;;;;;0.40;0.40;;;18.20;99.90;;;;;;4938950;28;20509;-88
2021/06/30 09:00:41;;;;;;;0.50;0.50;;;18.10;99.90;;;;;;4951591;28;20956;-88
2021/06/30 09:03:13;;;;;;;2.30;0.50;;;18.00;99.90;;;;;;4938803;28;20453;-88
2021/06/30 09:08:15;;;;;;;0.60;0.60;;;18.90;99.90;;;;;;4940607;28;20449;-88
2021/06/30 09:10:42;;;;;;;0.50;0.40;;;19.40;99.90;;;;;;4940104;28;20964;-88
2021/06/30 09:13:23;;;;;;;1.80;0.40;;;19.80;99.90;;;;;;4939100;28;20884;-88
2021/06/30 09:16:07;;;;;;;0.40;0.40;;;19.90;99.90;;;;;;4953583;28;21031;-87
2021/06/30 09:18:36;;;;;;;2.00;0.50;;;19.60;99.90;;;;;;4939241;28;20905;-88
2021/06/30 09:21:30;;;;;;;0.60;0.60;;;19.00;99.90;;;;;;4934249;28;20448;-88
2021/06/30 09:24:20;;;;;;;1.47;0.90;;;18.30;99.90;;;;;;4939488;28;20487;-88
2021/06/30 09:26:49;;;;;;;0.73;0.73;;;16.50;99.90;;;;;;4955992;28;20544;-88
2021/06/30 09:29:16;;;;;;;5.10;1.03;;;15.50;99.90;;;;;;4949774;28;20957;-88
2021/06/30 09:31:47;;;;;;;1.17;1.10;;;15.20;99.90;;;;;;4952619;28;20462;-88
2021/06/30 09:34:21;;;;;;;1.20;1.10;;;15.30;99.90;;;;;;4941983;28;20811;-90
2021/06/30 09:36:59;;;;;;;2.13;1.00;;;15.70;99.90;;;;;;4940412;28;20448;-90
2021/06/30 09:39:27;;;;;;;0.97;0.97;;;16.00;99.90;;;;;;4934862;28;20441;-89
2021/06/30 09:42:10;;;;;;;2.53;0.90;;;16.20;99.90;;;;;;4938309;28;20492;-90
2021/06/30 09:44:38;;;;;;;0.70;0.70;;;16.50;99.90;;;;;;4954246;28;20650;-92
2021/06/30 09:47:05;;;;;;;1.17;0.60;;;16.90;99.90;;;;;;4941252;28;20541;-88
2021/06/30 09:49:32;;;;;;;0.70;0.70;;;17.00;99.90;;;;;;4942588;28;20959;-87
2021/06/30 09:52:17;;;;;;;0.80;0.80;;;16.60;99.90;;;;;;4942606;28;20516;-90
2021/06/30 09:54:45;;;;;;;0.60;0.60;;;16.50;99.90;;;;;;4941000;28;20454;-88
2021/06/30 09:57:14;;;;;;;0.50;0.50;;;16.20;99.90;;;;;;4953916;28;20453;-90
2021/06/30 09:59:41;;;;;;;1.03;0.90;;;15.90;99.90;;;;;;4957016;28;20803;-90
2021/06/30 10:02:14;;;;;;;0.80;0.70;;;15.70;99.90;;;;;;4941486;28;20439;-91
2021/06/30 10:04:42;;;;;;;0.70;0.70;;;15.50;99.90;;;;;;4947970;28;20458;-90
2021/06/30 10:07:11;;;;;;;0.70;0.70;;;15.70;99.90;;;;;;4942403;28;20505;-89
2021/06/30 10:09:39;;;;;;;1.60;0.80;;;15.90;99.90;;;;;;4944007;28;20797;-90
2021/06/30 10:12:10;;;;;;;1.00;0.90;;;16.10;99.90;;;;;;4959520;28;20453;-89
2021/06/30 10:14:41;;;;;;;0.60;0.60;;;16.10;99.90;;;;;;4956362;28;20464;-89
2021/06/30 10:17:09;;;;;;;0.70;0.70;;;16.10;99.90;;;;;;4943284;28;20455;-89
2021/06/30 10:19:36;;;;;;;1.13;1.03;;;16.20;99.90;;;;;;4940747;28;20525;-89
2021/06/30 10:22:04;;;;;;;0.80;0.80;;;16.30;99.90;;;;;;4942458;28;20458;-89
2021/06/30 10:24:29;;;;;;;0.77;0.77;;;16.50;99.90;;;;;;4940919;28;20474;-88
2021/06/30 10:26:56;;;;;;;1.17;1.10;;;16.80;99.90;;;;;;4942177;28;20478;-88
2021/06/30 10:29:27;;;;;;;0.90;0.90;;;17.10;99.90;;;;;;4943171;28;20564;-89
2021/06/30 10:32:00;;;;;;;0.60;0.60;;;17.30;99.90;;;;;;4938699;28;20442;-90
2021/06/30 10:34:35;;;;;;;0.73;0.73;;;17.40;99.90;;;;;;4952843;28;20526;-88
2021/06/30 10:37:02;;;;;;;0.87;0.70;;;17.60;99.90;;;;;;4958442;28;20455;-87
2021/06/30 10:39:40;;;;;;;0.60;0.60;;;17.70;99.90;;;;;;4938569;28;20880;-87
2021/06/30 10:42:23;;;;;;;0.70;0.70;;;17.90;99.90;;;;;;4956430;28;20449;-88
2021/06/30 10:44:52;;;;;;;0.60;0.60;;;18.20;99.90;;;;;;4940599;28;20442;-88
2021/06/30 10:47:41;;;;;;;0.73;0.57;;;18.10;99.90;;;;;;4955347;28;20489;-88
2021/06/30 10:50:21;;;;;;;0.67;0.67;;;18.30;99.90;;;;;;4939429;28;20459;-88
2021/06/30 10:52:50;;;;;;;0.80;0.60;;;18.40;99.90;;;;;;4940780;28;20509;-88
2021/06/30 10:55:31;;;;;;;1.03;0.73;;;19.00;99.90;;;;;;4954770;28;20972;-88
2021/06/30 10:58:12;;;;;;;0.70;0.70;;;19.20;99.90;;;;;;4941726;28;20502;-88
2021/06/30 11:01:01;;;;;;;0.70;0.70;;;19.60;99.90;;;;;;4944774;28;20451;-88
2021/06/30 11:03:34;;;;;;;0.60;0.47;;;18.90;99.90;;;;;;4942863;28;20465;-88
2021/06/30 11:06:09;;;;;;;0.70;0.50;;;18.30;99.90;;;;;;4957370;28;20479;-89
2021/06/30 11:08:55;;;;;;;0.83;0.70;;;17.90;99.90;;;;;;4956554;28;20439;-88
2021/06/30 11:11:32;;;;;;;1.17;1.03;;;16.90;99.90;;;;;;4956563;28;20510;-88
2021/06/30 11:14:00;;;;;;;0.97;0.90;;;16.10;99.90;;;;;;4952721;28;21055;-91
2021/06/30 11:16:47;;;;;;;1.00;0.90;;;15.90;99.90;;;;;;4954796;28;20447;-90
2021/06/30 11:19:16;;;;;;;0.67;0.67;;;15.70;99.90;;;;;;4955548;28;20458;-90
2021/06/30 11:21:51;;;;;;;3.90;0.80;;;15.60;99.90;;;;;;4936399;28;20453;-90
2021/06/30 11:24:35;;;;;;;0.90;0.90;;;15.60;99.90;;;;;;4955222;28;20513;-91
2021/06/30 11:27:11;;;;;;;0.90;0.90;;;16.00;99.90;;;;;;4958018;28;20481;-90
2021/06/30 11:30:03;;;;;;;0.63;0.63;;;16.30;99.90;;;;;;4939303;28;20797;-90
2021/06/30 11:32:33;;;;;;;1.23;0.80;;;16.50;99.90;;;;;;4940120;28;20462;-91
2021/06/30 11:35:08;;;;;;;1.17;0.83;;;16.80;99.90;;;;;;4939951;28;20466;-89
2021/06/30 11:37:34;;;;;;;1.23;1.13;;;17.30;99.90;;;;;;4960367;28;20446;-89
2021/06/30 11:40:10;;;;;;;1.07;0.70;;;18.10;99.90;;;;;;4938643;28;20502;-89
2021/06/30 11:42:44;;;;;;;0.70;0.70;;;18.30;99.90;;;;;;4936357;28;20447;-92
2021/06/30 11:45:20;;;;;;;0.70;0.70;;;19.00;99.90;;;;;;4952233;28;20534;-89
2021/06/30 11:47:49;;;;;;;1.83;1.00;;;20.10;99.90;;;;;;4939413;28;20482;-88
2021/06/30 11:50:19;;;;;;;0.70;0.70;;;20.50;99.90;;;;;;4955681;28;20459;-89
2021/06/30 11:52:45;;;;;;;0.70;0.70;;;20.20;99.90;;;;;;4940462;28;20439;-89
2021/06/30 11:55:11;;;;;;;0.90;0.90;;;19.20;99.90;;;;;;4927343;28;20443;-88
2021/06/30 11:57:51;;;;;;;0.70;0.70;;;18.90;99.90;;;;;;4952067;28;20486;-90
2021/06/30 12:00:17;;;;;;;0.83;0.83;;;18.40;99.90;;;;;;4941596;28;20470;-90
2021/06/30 12:03:03;;;;;;;0.87;0.87;;;18.30;99.90;;;;;;4937710;28;20442;-90
2021/06/30 12:05:31;;;;;;;0.60;0.60;;;18.70;99.90;;;;;;4936982;28;21174;-88
2021/06/30 12:07:59;;;;;;;0.80;0.30;;;18.70;99.90;;;;;;4933315;28;20962;-87
2021/06/30 12:10:30;;;;;;;0.43;0.43;;;19.00;99.90;;;;;;4955978;28;20447;-87
2021/06/30 12:13:00;;;;;;;0.53;0.50;;;19.40;99.90;;;;;;4953871;28;20466;-88
2021/06/30 12:15:26;;;;;;;0.40;0.40;;;19.20;99.90;;;;;;4940466;28;20434;-87
2021/06/30 12:17:58;;;;;;;0.60;0.53;;;19.60;99.90;;;;;;4953741;28;20449;-89
2021/06/30 12:20:26;;;;;;;0.50;0.40;;;19.70;99.90;;;;;;4937136;28;20443;-88
2021/06/30 12:22:53;;;;;;;0.50;0.50;;;20.10;99.90;;;;;;4956309;28;20549;-88
2021/06/30 12:25:19;;;;;;;0.33;0.33;;;20.00;99.90;;;;;;4954948;28;20843;-89
2021/06/30 12:27:46;;;;;;;0.80;0.60;;;19.90;99.90;;;;;;4936976;28;20479;-89
2021/06/30 12:30:15;;;;;;;1.07;0.50;;;19.60;99.90;;;;;;4955652;28;21011;-88
2021/06/30 12:32:46;;;;;;;0.70;0.57;;;19.70;99.90;;;;;;4954615;28;20499;-88
2021/06/30 12:35:15;;;;;;;1.17;0.50;;;19.70;99.90;;;;;;4955373;28;20445;-88
2021/06/30 12:37:43;;;;;;;0.57;0.40;;;20.00;99.90;;;;;;4939998;28;20451;-89
2021/06/30 12:40:11;;;;;;;0.50;0.40;;;20.50;99.50;;;;;;4955742;28;20453;-88
2021/06/30 12:42:42;;;;;;;0.60;0.57;;;20.70;98.90;;;;;;4955014;28;20473;-89
2021/06/30 12:45:08;;;;;;;0.63;0.60;;;20.70;99.20;;;;;;4936627;28;20456;-88
2021/06/30 12:47:34;;;;;;;0.60;0.60;;;20.60;99.90;;;;;;4954652;28;20482;-88
2021/06/30 12:50:05;;;;;;;2.00;0.50;;;20.40;99.90;;;;;;4955936;28;20446;-88
2021/06/30 12:52:31;;;;;;;1.07;0.70;;;20.00;99.90;;;;;;4943196;28;21043;-89
2021/06/30 12:55:10;;;;;;;0.80;0.80;;;19.60;99.90;;;;;;4939690;28;20521;-88
2021/06/30 12:58:00;;;;;;;1.13;0.57;;;19.30;99.90;;;;;;4938728;28;20451;-87
2021/06/30 13:00:27;;;;;;;1.47;0.80;;;18.90;99.90;;;;;;4944688;28;20893;-90